Time;durP1;ratioP1;P1;durP2;ratioP2;P2;SDS_P1;SDS_P2;PMS_P1;PMS_P2;Temp;Humidity;BMP_temperature;BMP_pressure;BME280_temperature;BME280_humidity;BME280_pressure;Samples;Min_cycle;Max_cycle;Signal;HPM_P1;HPM_P2
2022/11/16 05:52:25;;;;;;;34.63;24.27;;;;;;;7.57;100.00;98249.03;6166930;23;20207;-82
2022/11/16 05:54:58;;;;;;;35.53;24.83;;;;;;;7.53;100.00;98247.88;6142486;23;20185;-82
2022/11/16 05:57:28;;;;;;;35.60;23.37;;;;;;;7.46;100.00;98242.69;6143779;23;20179;-82
2022/11/16 05:59:55;;;;;;;33.47;23.67;;;;;;;7.49;100.00;98236.06;6144878;23;20189;-82
2022/11/16 06:02:31;;;;;;;35.73;24.40;;;;;;;7.46;100.00;98236.53;6146341;23;20172;-82
2022/11/16 06:05:00;;;;;;;34.43;22.77;;;;;;;7.44;100.00;98231.44;6146337;23;20164;-82
2022/11/16 06:07:32;;;;;;;30.93;21.53;;;;;;;7.49;100.00;98238.72;6147985;23;20163;-83
2022/11/16 06:10:00;;;;;;;30.80;22.80;;;;;;;7.51;100.00;98236.66;6171037;23;20171;-82
2022/11/16 06:12:30;;;;;;;33.73;22.63;;;;;;;7.47;100.00;98238.94;6099862;23;20263;-82
2022/11/16 06:14:57;;;;;;;32.87;23.03;;;;;;;7.55;100.00;98247.66;6148148;23;20163;-82
2022/11/16 06:17:24;;;;;;;31.40;22.50;;;;;;;7.53;100.00;98237.22;6121822;23;20168;-82
2022/11/16 06:19:51;;;;;;;33.03;22.83;;;;;;;7.67;100.00;98251.09;6148034;23;20184;-82
2022/11/16 06:22:18;;;;;;;32.10;23.17;;;;;;;7.59;100.00;98238.13;6122061;23;20227;-82
2022/11/16 06:24:45;;;;;;;32.27;22.63;;;;;;;7.61;100.00;98236.03;6145826;23;20255;-82
2022/11/16 06:27:12;;;;;;;32.20;22.57;;;;;;;7.60;100.00;98242.44;6145917;23;20211;-82
2022/11/16 06:29:40;;;;;;;30.37;21.77;;;;;;;7.58;100.00;98253.31;6146234;23;20178;-82
2022/11/16 06:32:07;;;;;;;31.27;22.33;;;;;;;7.62;100.00;98240.31;6168590;23;20187;-82
2022/11/16 06:34:36;;;;;;;29.37;22.57;;;;;;;7.68;100.00;98245.53;6145420;23;20257;-82
2022/11/16 06:37:05;;;;;;;32.53;23.10;;;;;;;7.76;100.00;98241.69;6148645;23;20264;-82
2022/11/16 06:39:35;;;;;;;32.03;22.70;;;;;;;7.77;100.00;98241.47;6174447;23;20175;-83
2022/11/16 06:42:06;;;;;;;29.80;22.60;;;;;;;7.75;100.00;98237.41;6173022;23;20183;-82
2022/11/16 06:44:35;;;;;;;26.83;20.60;;;;;;;7.79;100.00;98231.38;6150622;23;20172;-82
2022/11/16 06:47:04;;;;;;;28.63;21.80;;;;;;;7.79;100.00;98226.03;6148535;23;20179;-83
2022/11/16 06:49:34;;;;;;;28.97;20.10;;;;;;;7.86;100.00;98218.72;6171459;23;20174;-82
2022/11/16 06:52:07;;;;;;;28.43;21.07;;;;;;;7.87;100.00;98206.22;6171099;23;20231;-82
2022/11/16 06:54:35;;;;;;;24.97;19.83;;;;;;;7.90;100.00;98200.38;6170668;23;20187;-82
2022/11/16 06:57:02;;;;;;;27.10;19.93;;;;;;;7.92;100.00;98199.13;6145644;23;20168;-82
2022/11/16 06:59:29;;;;;;;28.00;20.03;;;;;;;7.95;100.00;98200.50;6146604;23;20183;-82
2022/11/16 07:01:57;;;;;;;30.93;20.70;;;;;;;7.98;100.00;98198.16;6144223;23;20167;-82
2022/11/16 07:04:27;;;;;;;26.30;19.63;;;;;;;8.07;100.00;98205.81;6119859;23;20163;-82
2022/11/16 07:06:57;;;;;;;25.87;19.80;;;;;;;8.08;100.00;98210.88;6168345;23;20160;-82
2022/11/16 07:09:25;;;;;;;26.23;18.80;;;;;;;7.96;100.00;98197.59;6119114;23;20202;-82
2022/11/16 07:11:52;;;;;;;27.17;19.40;;;;;;;8.02;100.00;98203.84;6144000;23;20609;-83
2022/11/16 07:14:21;;;;;;;23.77;18.50;;;;;;;8.11;100.00;98196.28;6121115;23;20167;-82
2022/11/16 07:16:52;;;;;;;24.40;17.73;;;;;;;8.08;100.00;98191.38;6119265;23;20492;-82
2022/11/16 07:19:27;;;;;;;25.17;18.00;;;;;;;8.11;100.00;98190.94;6144723;23;20159;-82
2022/11/16 07:21:54;;;;;;;23.47;17.87;;;;;;;8.07;100.00;98187.91;6166381;23;20168;-82
2022/11/16 07:24:21;;;;;;;24.93;18.47;;;;;;;8.08;100.00;98197.53;6166485;23;20168;-82
2022/11/16 07:26:49;;;;;;;24.23;18.43;;;;;;;8.08;100.00;98189.53;6117356;23;20182;-82
2022/11/16 07:29:21;;;;;;;23.27;17.60;;;;;;;8.11;100.00;98185.59;6161567;23;20164;-80
2022/11/16 07:32:07;;;;;;;23.90;17.63;;;;;;;8.20;100.00;98200.19;6150973;23;20613;-80
2022/11/16 07:34:59;;;;;;;23.63;16.70;;;;;;;8.30;100.00;98195.06;6127067;23;20171;-79
2022/11/16 07:37:27;;;;;;;22.07;16.43;;;;;;;8.25;100.00;98182.41;6151236;23;20171;-80
2022/11/16 07:39:53;;;;;;;22.47;17.50;;;;;;;8.32;100.00;98195.63;6127174;23;20168;-80
2022/11/16 07:42:22;;;;;;;23.77;17.37;;;;;;;8.35;100.00;98200.50;6151767;23;20250;-79
2022/11/16 07:44:59;;;;;;;23.27;17.07;;;;;;;8.43;100.00;98209.97;6151219;23;20171;-79
2022/11/16 07:47:25;;;;;;;22.40;16.47;;;;;;;8.42;100.00;98205.66;6126407;23;20179;-80
2022/11/16 07:49:52;;;;;;;21.73;16.23;;;;;;;8.47;100.00;98197.75;6151129;23;20202;-79
2022/11/16 07:52:22;;;;;;;20.50;15.83;;;;;;;8.49;100.00;98195.66;6156948;23;20187;-79
2022/11/16 07:54:56;;;;;;;21.37;17.10;;;;;;;8.50;100.00;98195.41;6155648;23;20167;-79
2022/11/16 07:57:25;;;;;;;22.20;16.13;;;;;;;8.52;100.00;98198.66;6155913;23;20635;-79
2022/11/16 07:59:54;;;;;;;21.77;16.50;;;;;;;8.57;100.00;98187.25;6155844;23;20246;-79
2022/11/16 08:02:21;;;;;;;22.53;16.47;;;;;;;8.59;100.00;98199.28;6180470;23;20199;-80
2022/11/16 08:04:49;;;;;;;21.80;16.73;;;;;;;8.63;100.00;98199.63;6156257;23;20171;-80
2022/11/16 08:07:18;;;;;;;24.57;17.10;;;;;;;8.66;100.00;98199.16;6180439;23;20167;-80
2022/11/16 08:09:50;;;;;;;22.37;17.27;;;;;;;8.68;100.00;98194.34;6180553;23;20221;-78
2022/11/16 08:12:17;;;;;;;20.90;16.97;;;;;;;8.71;100.00;98188.56;6157079;23;20183;-80
2022/11/16 08:14:45;;;;;;;20.57;15.60;;;;;;;8.65;100.00;98192.19;6155882;23;20167;-79
2022/11/16 08:17:12;;;;;;;20.20;15.67;;;;;;;8.64;100.00;98201.25;6155390;23;20170;-80
2022/11/16 08:19:41;;;;;;;20.57;15.33;;;;;;;8.75;100.00;98187.81;6180703;23;20178;-80
2022/11/16 08:22:10;;;;;;;21.17;15.63;;;;;;;8.70;100.00;98179.72;6156240;23;20169;-79
2022/11/16 08:24:38;;;;;;;18.77;14.27;;;;;;;8.77;100.00;98188.38;6155431;23;20163;-79
2022/11/16 08:27:06;;;;;;;19.73;14.83;;;;;;;8.70;100.00;98185.06;6155117;23;20240;-80
2022/11/16 08:29:33;;;;;;;19.50;15.07;;;;;;;8.70;100.00;98190.41;6154898;23;20167;-79
2022/11/16 08:32:02;;;;;;;19.17;14.70;;;;;;;8.83;100.00;98186.59;6154986;23;20214;-79
2022/11/16 08:34:28;;;;;;;17.93;14.87;;;;;;;8.81;100.00;98189.53;6156782;23;20191;-79
2022/11/16 08:36:58;;;;;;;19.10;14.30;;;;;;;8.75;100.00;98195.03;6157731;23;20159;-80
2022/11/16 08:39:35;;;;;;;18.27;14.53;;;;;;;8.71;100.00;98193.91;6156374;23;20163;-80
2022/11/16 08:42:01;;;;;;;18.07;13.77;;;;;;;8.60;100.00;98186.75;6182245;23;20174;-80
2022/11/16 08:44:28;;;;;;;17.23;13.93;;;;;;;8.66;100.00;98188.47;6155496;23;20258;-80
2022/11/16 08:46:59;;;;;;;19.63;13.63;;;;;;;8.63;100.00;98181.72;6131625;23;20186;-80
2022/11/16 08:49:51;;;;;;;17.70;13.27;;;;;;;8.81;100.00;98196.72;6154238;23;20179;-79
2022/11/16 08:52:19;;;;;;;17.27;13.73;;;;;;;8.89;100.00;98196.31;6155050;23;20203;-80
2022/11/16 08:54:48;;;;;;;18.37;12.97;;;;;;;8.92;100.00;98205.69;6155495;23;20167;-79
2022/11/16 08:57:15;;;;;;;16.07;12.50;;;;;;;8.82;100.00;98209.81;6179895;23;20541;-79
2022/11/16 08:59:44;;;;;;;16.07;11.97;;;;;;;8.75;100.00;98206.53;6180156;23;20551;-79
2022/11/16 09:02:12;;;;;;;19.23;13.07;;;;;;;8.70;100.00;98213.63;6157166;23;20163;-79
2022/11/16 09:04:39;;;;;;;15.20;12.27;;;;;;;8.76;100.00;98220.69;6157105;23;20171;-80
2022/11/16 09:07:05;;;;;;;17.37;11.83;;;;;;;8.82;100.00;98207.16;6156981;23;20189;-80
2022/11/16 09:09:32;;;;;;;14.90;11.83;;;;;;;8.84;100.00;98217.59;6157185;23;20629;-80
2022/11/16 09:11:59;;;;;;;15.53;11.30;;;;;;;8.71;100.00;98220.59;6156751;23;20163;-79
2022/11/16 09:14:27;;;;;;;15.27;11.57;;;;;;;8.66;100.00;98217.84;6156934;23;20189;-79
2022/11/16 09:16:54;;;;;;;15.60;11.67;;;;;;;8.63;100.00;98219.13;6157117;23;20182;-79
2022/11/16 09:19:21;;;;;;;16.23;12.20;;;;;;;8.71;100.00;98225.94;6155444;23;20163;-80
2022/11/16 09:21:47;;;;;;;17.03;12.13;;;;;;;8.63;100.00;98226.34;6156841;23;20169;-79
2022/11/16 09:24:14;;;;;;;17.13;11.93;;;;;;;8.53;100.00;98221.63;6157208;23;20166;-80
2022/11/16 09:26:41;;;;;;;14.87;11.23;;;;;;;8.57;100.00;98222.75;6156870;23;20604;-80
2022/11/16 09:29:11;;;;;;;16.07;12.57;;;;;;;8.70;100.00;98219.78;6156839;23;20168;-80
2022/11/16 09:31:38;;;;;;;16.63;12.00;;;;;;;8.68;100.00;98211.19;6180428;23;20158;-79
2022/11/16 09:34:05;;;;;;;16.27;11.97;;;;;;;8.66;100.00;98212.50;6157626;23;20179;-80
2022/11/16 09:36:32;;;;;;;14.07;10.67;;;;;;;8.71;100.00;98216.06;6157274;23;20163;-80
2022/11/16 09:38:58;;;;;;;14.40;11.30;;;;;;;8.86;100.00;98209.34;6157472;23;20601;-79
2022/11/16 09:42:06;;;;;;;15.03;11.40;;;;;;;8.81;100.00;98224.25;6157089;23;20203;-80
2022/11/16 09:44:45;;;;;;;16.37;11.20;;;;;;;8.89;100.00;98217.69;6181948;23;20152;-80
2022/11/16 09:47:20;;;;;;;15.63;10.77;;;;;;;8.92;100.00;98214.53;6158521;23;20181;-79
2022/11/16 09:49:54;;;;;;;14.43;10.63;;;;;;;8.89;100.00;98207.00;6181378;23;20162;-80
2022/11/16 09:52:34;;;;;;;15.43;10.57;;;;;;;8.90;100.00;98210.50;6158377;23;20158;-80
2022/11/16 09:55:09;;;;;;;16.50;11.30;;;;;;;8.99;100.00;98212.50;6158369;23;20600;-81
2022/11/16 09:57:42;;;;;;;14.27;10.80;;;;;;;8.98;100.00;98210.06;6157482;23;20158;-79
2022/11/16 10:00:16;;;;;;;14.93;11.00;;;;;;;8.90;100.00;98205.16;6158136;23;20167;-79
2022/11/16 10:02:47;;;;;;;13.90;10.73;;;;;;;8.95;100.00;98207.91;6188654;23;20158;-80
2022/11/16 10:05:24;;;;;;;15.70;11.57;;;;;;;9.02;100.00;98203.19;6181741;23;20166;-80
2022/11/16 10:07:57;;;;;;;18.20;12.03;;;;;;;8.94;100.00;98196.41;6183306;23;20151;-80
2022/11/16 10:10:35;;;;;;;16.93;12.00;;;;;;;8.99;100.00;98198.34;6182454;23;20163;-80
2022/11/16 10:13:37;;;;;;;12.97;9.90;;;;;;;9.02;100.00;98203.19;6157746;23;20541;-80
2022/11/16 10:16:12;;;;;;;12.87;10.17;;;;;;;9.05;100.00;98200.06;6134508;23;20249;-79
2022/11/16 10:19:02;;;;;;;13.97;10.53;;;;;;;8.95;100.00;98194.53;6181339;23;20238;-80
2022/11/16 10:21:47;;;;;;;16.63;12.00;;;;;;;8.90;100.00;98189.94;6180094;23;20202;-79
2022/11/16 10:24:28;;;;;;;15.23;10.83;;;;;;;8.89;100.00;98187.50;6156901;23;20166;-79
2022/11/16 10:27:20;;;;;;;16.93;12.10;;;;;;;8.94;100.00;98195.59;6180193;23;20206;-80
2022/11/16 10:29:47;;;;;;;16.90;11.83;;;;;;;8.91;100.00;98193.41;6156879;23;20524;-80
2022/11/16 10:32:24;;;;;;;16.57;12.13;;;;;;;8.92;100.00;98193.16;6156943;23;20170;-80
2022/11/16 10:35:10;;;;;;;15.03;10.90;;;;;;;8.91;100.00;98188.06;6180533;23;20174;-80
2022/11/16 10:37:43;;;;;;;15.23;11.37;;;;;;;9.01;100.00;98190.88;6157141;23;20148;-79
2022/11/16 10:40:16;;;;;;;15.10;11.70;;;;;;;8.90;100.00;98187.25;6155809;23;20158;-80
2022/11/16 10:42:43;;;;;;;14.47;11.23;;;;;;;8.91;100.00;98190.75;6157031;23;20186;-79
2022/11/16 10:45:10;;;;;;;13.67;11.47;;;;;;;9.00;100.00;98182.09;6155334;23;20169;-80
2022/11/16 10:47:45;;;;;;;13.43;11.33;;;;;;;9.00;100.00;98182.09;6156845;23;20171;-79
2022/11/16 10:50:36;;;;;;;15.97;11.60;;;;;;;9.04;100.00;98183.22;6158470;23;20554;-79
2022/11/16 10:53:03;;;;;;;14.27;10.80;;;;;;;9.06;100.00;98182.94;6184290;23;20189;-80
2022/11/16 10:55:30;;;;;;;14.13;10.67;;;;;;;9.17;100.00;98180.19;6187083;23;20166;-79
2022/11/16 10:58:03;;;;;;;14.33;11.17;;;;;;;9.11;100.00;98178.50;6186246;23;20174;-80
2022/11/16 11:00:35;;;;;;;12.23;9.87;;;;;;;9.19;100.00;98178.06;6185154;23;20510;-80
2022/11/16 11:03:02;;;;;;;12.37;9.50;;;;;;;9.21;100.00;98173.28;6186327;23;20162;-79
2022/11/16 11:05:29;;;;;;;11.60;9.67;;;;;;;9.23;100.00;98176.53;6186601;23;20162;-79
2022/11/16 11:08:09;;;;;;;11.40;9.43;;;;;;;9.32;100.00;98181.47;6185159;23;20162;-80
2022/11/16 11:10:38;;;;;;;13.47;9.63;;;;;;;9.38;100.00;98175.91;6186488;23;20469;-79
2022/11/16 11:13:10;;;;;;;13.27;9.43;;;;;;;9.59;100.00;98177.81;6184804;23;20162;-79
2022/11/16 11:15:39;;;;;;;12.67;9.83;;;;;;;9.83;100.00;98172.22;6186257;23;20615;-79
2022/11/16 11:18:14;;;;;;;11.10;9.07;;;;;;;9.99;100.00;98174.81;6184871;23;20162;-79
2022/11/16 11:20:43;;;;;;;12.40;7.83;;;;;;;10.27;100.00;98171.13;6186598;23;20158;-79
2022/11/16 11:23:14;;;;;;;11.07;8.30;;;;;;;10.43;100.00;98164.06;6161092;23;20167;-79
2022/11/16 11:25:51;;;;;;;11.73;8.43;;;;;;;10.53;100.00;98169.50;6186532;23;20185;-79
2022/11/16 11:28:22;;;;;;;11.33;8.57;;;;;;;10.50;100.00;98167.31;6186940;23;20610;-79
2022/11/16 11:31:01;;;;;;;9.93;7.93;;;;;;;10.58;100.00;98174.91;6186570;23;20190;-79
2022/11/16 11:33:35;;;;;;;13.63;9.60;;;;;;;10.42;100.00;98171.28;6185267;23;20184;-80
2022/11/16 11:36:07;;;;;;;12.20;9.43;;;;;;;10.44;100.00;98169.16;6185508;23;20162;-79
2022/11/16 11:38:57;;;;;;;12.47;8.60;;;;;;;10.51;100.00;98169.75;6186794;23;20154;-79
2022/11/16 11:41:24;;;;;;;9.80;8.47;;;;;;;10.25;100.00;98167.09;6161145;23;20658;-79
2022/11/16 11:44:04;;;;;;;12.43;9.17;;;;;;;10.14;100.00;98166.13;6185516;23;20611;-80
2022/11/16 11:46:36;;;;;;;11.57;9.00;;;;;;;10.00;100.00;98164.91;6186520;23;20197;-79
2022/11/16 11:49:26;;;;;;;9.67;8.27;;;;;;;9.98;100.00;98153.69;6185201;23;20505;-79
2022/11/16 11:52:04;;;;;;;12.77;8.23;;;;;;;9.79;100.00;98158.53;6159797;23;20202;-79
2022/11/16 11:54:32;;;;;;;10.07;7.47;;;;;;;9.71;100.00;98154.44;6160327;23;20181;-80
2022/11/16 11:57:01;;;;;;;9.07;7.37;;;;;;;9.50;100.00;98146.41;6184962;23;20223;-80
2022/11/16 11:59:28;;;;;;;10.30;8.10;;;;;;;9.46;100.00;98150.66;6186555;23;20489;-79
2022/11/16 12:02:01;;;;;;;8.80;7.73;;;;;;;9.13;100.00;98154.22;6186326;23;20225;-79
2022/11/16 12:04:31;;;;;;;10.17;8.30;;;;;;;9.19;100.00;98156.69;6186682;23;20229;-79
2022/11/16 12:07:17;;;;;;;10.57;8.87;;;;;;;9.18;100.00;98156.94;6186430;23;20162;-80
2022/11/16 12:10:02;;;;;;;11.40;8.77;;;;;;;8.95;100.00;98154.47;6185893;23;20157;-79
2022/11/16 12:12:46;;;;;;;10.23;8.73;;;;;;;8.93;100.00;98148.56;6186431;23;20143;-79
2022/11/16 12:15:42;;;;;;;10.40;8.43;;;;;;;8.97;100.00;98158.50;6186564;23;20249;-79
2022/11/16 12:18:25;;;;;;;9.90;8.90;;;;;;;8.99;100.00;98164.44;6178200;23;20641;-79
2022/11/16 12:21:01;;;;;;;10.13;8.07;;;;;;;8.92;100.00;98154.94;6186170;23;20169;-80
2022/11/16 12:23:51;;;;;;;11.77;8.97;;;;;;;9.02;100.00;98149.75;6186147;23;20155;-79
2022/11/16 12:26:33;;;;;;;10.80;8.73;;;;;;;8.98;100.00;98159.31;6186500;23;20607;-80
2022/11/16 12:29:27;;;;;;;11.37;9.60;;;;;;;9.05;100.00;98150.06;6187006;23;20165;-80
2022/11/16 12:32:16;;;;;;;11.83;8.93;;;;;;;9.04;100.00;98161.84;6186858;23;20498;-79
2022/11/16 12:35:14;;;;;;;12.53;9.30;;;;;;;9.03;100.00;98156.72;6185263;23;20240;-80
2022/11/16 12:37:48;;;;;;;12.30;9.27;;;;;;;8.83;100.00;98154.56;6186547;23;20170;-79
2022/11/16 12:40:26;;;;;;;12.33;9.67;;;;;;;8.86;100.00;98153.28;6185457;23;20143;-80
2022/11/16 12:42:53;;;;;;;13.97;10.93;;;;;;;8.74;100.00;98154.16;6187269;23;20169;-80
2022/11/16 12:45:45;;;;;;;12.60;10.07;;;;;;;8.74;100.00;98146.16;6186461;23;20170;-80
2022/11/16 12:48:36;;;;;;;14.53;10.90;;;;;;;8.81;100.00;98154.81;6186917;23;20596;-80
2022/11/16 12:51:25;;;;;;;13.80;10.37;;;;;;;8.69;100.00;98148.75;6186402;23;20198;-79
2022/11/16 12:54:11;;;;;;;15.67;11.67;;;;;;;8.58;100.00;98143.50;6185503;23;20182;-80
2022/11/16 12:57:00;;;;;;;16.03;12.00;;;;;;;8.69;100.00;98138.06;6187006;23;20149;-80
2022/11/16 12:59:37;;;;;;;20.83;11.80;;;;;;;8.79;100.00;98135.53;6187226;23;20151;-79
2022/11/16 13:02:30;;;;;;;14.33;11.40;;;;;;;8.88;100.00;98140.47;6185357;23;20177;-80
2022/11/16 13:05:12;;;;;;;15.60;11.57;;;;;;;8.99;100.00;98140.38;6186790;23;20155;-79
2022/11/16 13:07:49;;;;;;;15.43;11.10;;;;;;;9.08;100.00;98135.44;6184722;23;20178;-80
2022/11/16 13:10:20;;;;;;;16.10;10.53;;;;;;;9.14;100.00;98139.81;6185036;23;20204;-80
2022/11/16 13:12:50;;;;;;;14.93;9.90;;;;;;;9.14;100.00;98124.56;6160656;23;20195;-80
2022/11/16 13:15:39;;;;;;;13.67;9.67;;;;;;;9.30;100.00;98138.94;6185914;23;20171;-79
2022/11/16 13:18:11;;;;;;;13.43;9.80;;;;;;;9.32;100.00;98133.34;6188511;23;20155;-80
2022/11/16 13:20:51;;;;;;;14.23;9.87;;;;;;;9.45;100.00;98127.63;6161841;23;20190;-80
2022/11/16 13:23:30;;;;;;;11.43;8.77;;;;;;;9.32;100.00;98126.16;6186126;23;20192;-80
2022/11/16 13:26:09;;;;;;;12.47;8.93;;;;;;;9.40;100.00;98122.22;6187457;23;20150;-80
2022/11/16 13:28:41;;;;;;;12.73;8.13;;;;;;;9.48;100.00;98127.13;6164929;23;20150;-80
2022/11/16 13:31:32;;;;;;;10.87;8.00;;;;;;;9.49;100.00;98118.88;6189123;23;20253;-81
2022/11/16 13:34:02;;;;;;;10.57;7.73;;;;;;;9.49;100.00;98113.53;6189637;23;20216;-80
2022/11/16 13:36:42;;;;;;;10.47;7.57;;;;;;;9.45;100.00;98116.94;6191671;23;20604;-81
2022/11/16 13:39:10;;;;;;;8.97;7.37;;;;;;;9.45;100.00;98108.94;6191812;23;20165;-80
2022/11/16 13:41:47;;;;;;;9.83;6.70;;;;;;;9.50;100.00;98115.16;6186692;23;20155;-80
2022/11/16 13:44:22;;;;;;;11.93;6.87;;;;;;;9.54;100.00;98115.44;6187526;23;20155;-79
2022/11/16 13:46:51;;;;;;;9.50;6.83;;;;;;;9.36;100.00;98103.22;6163066;23;20591;-81
2022/11/16 13:49:32;;;;;;;10.30;7.37;;;;;;;9.42;100.00;98112.91;6191999;23;20668;-79
2022/11/16 13:52:07;;;;;;;9.80;7.40;;;;;;;9.40;100.00;98114.19;6187382;23;20217;-80
2022/11/16 13:54:51;;;;;;;10.03;7.53;;;;;;;9.24;100.00;98107.84;6169639;23;20821;-82
2022/11/16 13:57:31;;;;;;;10.17;7.63;;;;;;;9.09;100.00;98097.78;6196546;23;20190;-82
2022/11/16 14:00:00;;;;;;;8.93;7.10;;;;;;;8.90;100.00;98106.31;6194293;23;20158;-81
2022/11/16 14:02:37;;;;;;;11.50;8.13;;;;;;;8.83;100.00;98101.94;6190795;23;20166;-81
2022/11/16 14:05:25;;;;;;;12.83;9.93;;;;;;;8.74;100.00;98103.44;6192876;23;20159;-81
2022/11/16 14:07:52;;;;;;;13.80;10.40;;;;;;;8.79;100.00;98105.34;6188019;23;20165;-80
2022/11/16 14:10:33;;;;;;;10.27;7.73;;;;;;;8.75;100.00;98107.72;6191317;23;20166;-81
2022/11/16 14:13:03;;;;;;;9.00;7.70;;;;;;;8.74;100.00;98111.44;6198505;23;20218;-81
2022/11/16 14:15:34;;;;;;;8.40;7.23;;;;;;;8.65;100.00;98106.75;6193176;23;20182;-80
2022/11/16 14:18:08;;;;;;;10.37;7.57;;;;;;;8.73;100.00;98098.31;6188668;23;20588;-82
2022/11/16 14:21:08;;;;;;;9.73;6.87;;;;;;;8.59;100.00;98099.69;6197449;23;20495;-81
2022/11/16 14:24:14;;;;;;;8.17;6.70;;;;;;;8.52;100.00;98093.75;6192661;23;20201;-81
2022/11/16 14:26:59;;;;;;;7.57;6.00;;;;;;;8.55;100.00;98099.38;6197599;23;20154;-81
2022/11/16 14:29:49;;;;;;;8.57;6.17;;;;;;;8.47;100.00;98096.31;6194437;23;20204;-82
2022/11/16 14:32:25;;;;;;;10.30;6.30;;;;;;;8.18;100.00;98088.34;6191843;23;20151;-81
2022/11/16 14:34:54;;;;;;;37.90;25.33;;;;;;;8.33;100.00;98087.84;6193429;23;20170;-81
2022/11/16 14:37:20;;;;;;;9.30;7.87;;;;;;;8.27;100.00;98086.91;6196446;23;20166;-80
2022/11/16 14:39:49;;;;;;;10.30;9.20;;;;;;;8.06;100.00;98076.94;6190660;23;20511;-80
2022/11/16 14:42:19;;;;;;;6.93;6.00;;;;;;;7.99;100.00;98076.28;6190945;23;20229;-80
2022/11/16 14:44:46;;;;;;;7.40;6.20;;;;;;;7.98;100.00;98067.47;6165151;23;20197;-80
2022/11/16 14:47:24;;;;;;;9.17;7.70;;;;;;;8.05;100.00;98071.84;6188855;23;20171;-81
2022/11/16 14:49:52;;;;;;;7.87;5.97;;;;;;;7.95;100.00;98070.63;6193025;23;20177;-81
2022/11/16 14:52:27;;;;;;;8.40;6.13;;;;;;;7.82;100.00;98062.94;6161592;23;20201;-81
2022/11/16 14:54:59;;;;;;;8.53;6.20;;;;;;;7.82;100.00;98068.28;6165705;23;20669;-81
2022/11/16 14:57:25;;;;;;;8.90;6.30;;;;;;;7.80;100.00;98067.69;6186038;23;20187;-80
2022/11/16 15:00:17;;;;;;;8.20;6.17;;;;;;;7.72;100.00;98062.75;6160766;23;20166;-81
2022/11/16 15:02:53;;;;;;;8.07;6.63;;;;;;;7.76;100.00;98071.06;6162256;23;20576;-81
2022/11/16 15:05:31;;;;;;;8.33;6.27;;;;;;;7.62;100.00;98067.06;6184160;23;20490;-80
2022/11/16 15:07:58;;;;;;;10.57;7.20;;;;;;;7.54;100.00;98062.94;6183821;23;20608;-80
2022/11/16 15:10:27;;;;;;;10.50;7.80;;;;;;;7.65;100.00;98064.72;6159068;23;20174;-81
2022/11/16 15:12:55;;;;;;;11.93;8.30;;;;;;;7.70;100.00;98056.84;6182860;23;20163;-80
2022/11/16 15:15:25;;;;;;;8.97;7.53;;;;;;;7.67;100.00;98064.50;6165079;23;20655;-80
2022/11/16 15:17:58;;;;;;;8.87;7.70;;;;;;;7.75;100.00;98056.13;6166400;23;20177;-82
2022/11/16 15:20:27;;;;;;;10.07;7.60;;;;;;;7.60;100.00;98059.34;6167728;23;20156;-81
2022/11/16 15:22:57;;;;;;;10.37;7.53;;;;;;;7.73;100.00;98044.91;6192644;23;20198;-81
2022/11/16 15:25:37;;;;;;;10.60;7.50;;;;;;;7.59;100.00;98056.91;6170816;23;20242;-83
2022/11/16 15:28:20;;;;;;;10.07;8.50;;;;;;;7.40;100.00;98046.44;6200670;23;20143;-82
2022/11/16 15:30:54;;;;;;;9.87;7.07;;;;;;;7.43;100.00;98053.13;6181494;23;20203;-82
2022/11/16 15:33:45;;;;;;;14.50;8.13;;;;;;;7.29;100.00;98049.13;6170342;23;20166;-81
2022/11/16 15:36:37;;;;;;;9.73;7.87;;;;;;;7.43;100.00;98043.28;6165724;23;20171;-80
2022/11/16 15:39:05;;;;;;;10.67;8.17;;;;;;;7.27;100.00;98038.72;6164848;23;20631;-81
2022/11/16 15:41:32;;;;;;;10.70;8.47;;;;;;;7.25;100.00;98046.13;6162637;23;20197;-81
2022/11/16 15:44:02;;;;;;;9.87;7.63;;;;;;;7.32;100.00;98046.81;6162583;23;20605;-81
2022/11/16 15:46:47;;;;;;;10.47;7.73;;;;;;;7.44;100.00;98039.56;6163362;23;20156;-81
2022/11/16 15:49:32;;;;;;;12.37;7.90;;;;;;;7.35;100.00;98048.19;6160241;23;20166;-81
2022/11/16 15:51:59;;;;;;;9.77;8.20;;;;;;;7.33;100.00;98044.94;6186289;23;20227;-81
2022/11/16 15:55:02;;;;;;;11.80;8.67;;;;;;;7.35;100.00;98038.34;6188773;23;20510;-81
2022/11/16 15:57:22;;;;;;;11.90;8.47;;;;;;;7.30;100.00;98030.25;6182978;23;20190;-82
2022/11/16 15:59:54;;;;;;;11.37;8.53;;;;;;;7.19;100.00;98039.06;6162952;23;20160;-81
2022/11/16 16:02:23;;;;;;;11.13;8.47;;;;;;;7.24;100.00;98028.53;6163917;23;20155;-81
2022/11/16 16:04:49;;;;;;;12.60;9.00;;;;;;;7.18;100.00;98037.47;6165229;23;20247;-82
2022/11/16 16:07:45;;;;;;;12.20;8.87;;;;;;;7.04;100.00;98038.78;6164317;23;20179;-81
2022/11/16 16:10:18;;;;;;;10.90;8.97;;;;;;;7.00;100.00;98048.25;6144339;23;20175;-81
2022/11/16 16:12:53;;;;;;;12.20;9.77;;;;;;;7.07;100.00;98043.63;6164698;23;20173;-81
2022/11/16 16:15:22;;;;;;;11.13;8.73;;;;;;;7.14;100.00;98040.84;6138238;23;20213;-81
2022/11/16 16:17:49;;;;;;;11.57;8.60;;;;;;;7.07;100.00;98038.31;6164624;23;20159;-81
2022/11/16 16:20:18;;;;;;;13.20;9.60;;;;;;;6.94;100.00;98046.56;6162586;23;20242;-81
2022/11/16 16:22:45;;;;;;;12.77;9.93;;;;;;;6.94;100.00;98041.22;6164094;23;20159;-81
2022/11/16 16:25:29;;;;;;;12.87;9.77;;;;;;;6.95;100.00;98048.97;6163048;23;20190;-81
2022/11/16 16:27:57;;;;;;;16.20;9.83;;;;;;;6.99;100.00;98047.47;6162540;23;20147;-81
2022/11/16 16:30:23;;;;;;;13.57;10.47;;;;;;;6.96;100.00;98041.78;6186646;23;20170;-81
2022/11/16 16:32:50;;;;;;;11.27;9.53;;;;;;;7.15;100.00;98039.78;6165299;23;20163;-81
2022/11/16 16:35:20;;;;;;;13.37;10.43;;;;;;;7.05;100.00;98041.19;6163506;23;20189;-81
2022/11/16 16:37:58;;;;;;;14.73;10.77;;;;;;;7.04;100.00;98041.44;6164825;23;20163;-81
2022/11/16 16:40:26;;;;;;;11.77;9.67;;;;;;;7.21;100.00;98046.84;6177987;23;20151;-83
2022/11/16 16:42:56;;;;;;;11.30;9.30;;;;;;;7.06;100.00;98026.84;6151764;23;20166;-81
2022/11/16 16:45:40;;;;;;;13.47;10.40;;;;;;;7.08;100.00;98037.25;6175184;23;20165;-82
2022/11/16 16:48:08;;;;;;;13.60;10.30;;;;;;;6.95;100.00;98040.97;6147792;23;20210;-82
2022/11/16 16:50:38;;;;;;;13.10;10.13;;;;;;;7.23;100.00;98032.22;6195450;23;20247;-82
2022/11/16 16:53:05;;;;;;;11.33;9.67;;;;;;;7.09;100.00;98038.88;6122443;23;20167;-82
2022/11/16 16:55:33;;;;;;;13.60;10.30;;;;;;;7.05;100.00;98035.88;6147713;23;20189;-82
2022/11/16 16:58:03;;;;;;;12.67;9.50;;;;;;;7.14;100.00;98038.97;6172667;23;20166;-82
2022/11/16 17:00:30;;;;;;;12.47;9.93;;;;;;;7.09;100.00;98030.91;6171241;23;20225;-82
2022/11/16 17:02:57;;;;;;;13.63;10.43;;;;;;;7.06;100.00;98042.81;6147500;23;20174;-82
2022/11/16 17:05:25;;;;;;;13.93;10.40;;;;;;;6.94;100.00;98034.06;6175634;23;20254;-83
2022/11/16 17:07:55;;;;;;;13.40;11.47;;;;;;;7.09;100.00;98033.56;6175278;23;20175;-82
2022/11/16 17:10:25;;;;;;;13.30;10.60;;;;;;;7.05;100.00;98048.38;6175964;23;20151;-82
2022/11/16 17:13:01;;;;;;;15.43;12.07;;;;;;;7.14;100.00;98038.97;6201323;23;20167;-83
2022/11/16 22:08:34;;;;;;;5.80;5.30;;;;;;;7.39;100.00;97964.88;6199654;23;20247;-84
2022/11/16 22:11:06;;;;;;;5.63;5.03;;;;;;;7.39;100.00;97964.88;6144731;23;20194;-82
2022/11/16 22:13:36;;;;;;;6.43;5.80;;;;;;;7.42;100.00;97972.38;6135278;23;20196;-81
